Time;durP1;ratioP1;P1;durP2;ratioP2;P2;SDS_P1;SDS_P2;PMS_P1;PMS_P2;Temp;Humidity;BMP_temperature;BMP_pressure;BME280_temperature;BME280_humidity;BME280_pressure;Samples;Min_cycle;Max_cycle;Signal;HPM_P1;HPM_P2
2022/11/02 00:00:44;;;;;;;6.22;1.67;;;13.00;99.90;;;;;;5111301;28;20098;-85
2022/11/02 00:03:11;;;;;;;7.18;1.55;;;12.90;99.90;;;;;;5111797;28;20087;-86
2022/11/02 00:05:36;;;;;;;7.63;1.70;;;12.90;99.90;;;;;;5094854;28;20042;-86
2022/11/02 00:08:02;;;;;;;7.43;1.83;;;12.80;99.90;;;;;;5111627;28;20126;-86
2022/11/02 00:10:30;;;;;;;4.88;1.05;;;12.80;99.90;;;;;;5077811;28;20043;-87
2022/11/02 00:12:56;;;;;;;6.55;1.73;;;12.80;99.90;;;;;;5094328;28;20067;-85
2022/11/02 00:15:27;;;;;;;8.45;1.50;;;12.70;99.90;;;;;;5077195;28;20094;-84
2022/11/02 00:18:03;;;;;;;8.10;1.83;;;12.60;99.90;;;;;;5095165;28;20062;-85
2022/11/02 00:20:29;;;;;;;6.73;1.83;;;12.40;99.90;;;;;;5079374;28;20036;-85
2022/11/02 00:22:57;;;;;;;5.72;1.40;;;12.50;99.90;;;;;;5101032;28;20051;-87
2022/11/02 00:25:23;;;;;;;9.45;1.92;;;12.40;99.90;;;;;;5086473;28;20048;-85
2022/11/02 00:27:49;;;;;;;7.57;1.40;;;12.40;99.90;;;;;;5080649;28;20054;-85
2022/11/02 00:30:14;;;;;;;6.72;1.45;;;12.40;99.90;;;;;;5099413;28;20043;-85
2022/11/02 00:32:40;;;;;;;4.68;1.50;;;12.40;99.90;;;;;;5115066;28;20065;-86
2022/11/02 00:35:06;;;;;;;10.35;1.75;;;12.30;99.90;;;;;;5115323;28;20044;-85
2022/11/02 00:37:32;;;;;;;5.00;1.40;;;12.30;99.90;;;;;;5094535;28;20048;-85
2022/11/02 00:39:58;;;;;;;10.93;2.45;;;12.40;99.90;;;;;;5114516;27;20435;-86
2022/11/02 00:42:23;;;;;;;6.43;1.50;;;12.40;99.90;;;;;;5097907;28;20139;-86
2022/11/02 00:44:49;;;;;;;9.18;1.85;;;12.40;99.90;;;;;;5116602;28;20174;-85
2022/11/02 00:47:15;;;;;;;6.18;1.63;;;12.40;99.90;;;;;;5097337;28;20046;-86
2022/11/02 00:49:40;;;;;;;5.28;1.52;;;12.40;99.90;;;;;;5064523;28;20054;-86
2022/11/02 00:52:06;;;;;;;4.88;1.30;;;12.40;99.90;;;;;;5097891;28;20126;-86
2022/11/02 00:54:31;;;;;;;6.57;1.80;;;12.50;99.90;;;;;;5081037;28;20180;-85
2022/11/02 00:56:57;;;;;;;9.80;1.60;;;12.40;99.90;;;;;;5079592;28;20082;-86
2022/11/02 00:59:23;;;;;;;6.10;1.42;;;12.30;99.90;;;;;;5080505;28;20052;-87
2022/11/02 01:01:49;;;;;;;5.15;1.67;;;13.50;99.90;;;;;;5079884;28;20062;-86
2022/11/02 01:04:15;;;;;;;9.15;1.90;;;12.20;99.90;;;;;;5079623;28;20457;-86
2022/11/02 01:06:41;;;;;;;7.93;1.70;;;12.00;99.90;;;;;;5080472;28;20052;-86
2022/11/02 01:09:08;;;;;;;4.53;1.35;;;11.80;99.90;;;;;;5063986;28;20040;-86
2022/11/02 01:11:33;;;;;;;7.20;1.50;;;11.80;99.90;;;;;;5080165;28;20558;-85
2022/11/02 01:13:59;;;;;;;5.53;1.27;;;11.70;99.90;;;;;;5062895;28;20039;-85
2022/11/02 01:16:25;;;;;;;4.82;1.60;;;11.50;99.90;;;;;;5096344;28;20051;-86
2022/11/02 01:18:54;;;;;;;4.28;1.40;;;11.40;99.90;;;;;;5063254;28;20471;-84
2022/11/02 01:21:20;;;;;;;4.18;0.95;;;11.30;99.90;;;;;;5080234;28;20055;-84
2022/11/02 01:23:45;;;;;;;8.00;1.85;;;11.30;99.90;;;;;;5080155;28;20510;-85
2022/11/02 01:26:11;;;;;;;2.42;0.85;;;11.30;99.90;;;;;;5062855;28;20506;-85
2022/11/02 01:28:38;;;;;;;2.85;1.00;;;11.30;99.90;;;;;;5096763;28;20040;-86
2022/11/02 01:31:04;;;;;;;4.05;1.20;;;11.20;99.90;;;;;;5063539;28;20090;-85
2022/11/02 01:33:29;;;;;;;4.82;1.30;;;11.30;99.90;;;;;;5063296;28;20506;-85
2022/11/02 01:35:57;;;;;;;5.57;1.33;;;11.20;99.90;;;;;;5083323;28;20051;-85
2022/11/02 01:38:23;;;;;;;5.80;1.60;;;11.20;99.90;;;;;;5065489;28;20035;-85
2022/11/02 01:40:49;;;;;;;7.78;1.73;;;11.20;99.90;;;;;;5079809;28;20063;-85
2022/11/02 01:43:30;;;;;;;10.43;2.13;;;11.20;99.90;;;;;;5079315;28;20070;-85
2022/11/02 01:45:59;;;;;;;7.68;2.05;;;11.20;99.90;;;;;;5080827;28;20149;-85
2022/11/02 01:48:31;;;;;;;10.40;2.40;;;11.20;99.90;;;;;;5068006;28;20056;-86
2022/11/02 01:50:57;;;;;;;9.07;2.40;;;11.20;99.90;;;;;;5080650;28;20059;-84
2022/11/02 01:53:22;;;;;;;5.13;2.20;;;11.30;99.90;;;;;;5084582;28;20154;-86
2022/11/02 01:55:48;;;;;;;11.18;2.30;;;11.20;99.90;;;;;;5079997;28;20154;-86
2022/11/02 01:58:14;;;;;;;10.18;2.17;;;11.20;99.90;;;;;;5062170;28;20047;-85
2022/11/02 02:00:39;;;;;;;8.80;2.20;;;11.10;99.90;;;;;;5096180;28;20498;-85
2022/11/02 02:03:10;;;;;;;10.57;2.72;;;11.10;99.90;;;;;;5095998;28;20066;-85
2022/11/02 02:05:54;;;;;;;9.00;2.40;;;11.10;99.90;;;;;;5063026;28;20108;-86
2022/11/02 02:08:20;;;;;;;7.97;2.63;;;11.00;99.90;;;;;;5062252;28;20143;-86
2022/11/02 02:10:46;;;;;;;8.38;2.10;;;11.00;99.90;;;;;;5062889;28;20055;-86
2022/11/02 02:13:11;;;;;;;6.45;2.30;;;11.10;99.90;;;;;;5062272;28;20392;-87
2022/11/02 02:15:47;;;;;;;8.10;2.30;;;11.10;99.90;;;;;;5062192;28;20474;-87
2022/11/02 02:18:19;;;;;;;9.48;2.20;;;11.10;99.90;;;;;;5079847;28;20050;-86
2022/11/02 02:20:52;;;;;;;12.50;3.10;;;11.10;99.90;;;;;;5046526;28;20051;-85
2022/11/02 02:23:41;;;;;;;5.03;2.60;;;11.20;99.90;;;;;;5079008;28;20048;-86
2022/11/02 02:26:28;;;;;;;12.35;2.60;;;11.20;99.90;;;;;;5079684;28;20047;-86
2022/11/02 02:29:00;;;;;;;16.30;3.17;;;11.20;99.90;;;;;;5095852;28;20082;-87
2022/11/02 02:31:43;;;;;;;10.75;2.55;;;11.30;99.90;;;;;;5062127;28;20116;-86
2022/11/02 02:34:14;;;;;;;8.43;2.50;;;11.30;99.90;;;;;;5062409;28;20094;-86
2022/11/02 02:36:48;;;;;;;8.15;2.58;;;11.40;99.90;;;;;;5078209;28;20040;-85
2022/11/02 02:39:31;;;;;;;9.60;2.50;;;11.40;99.90;;;;;;5079027;28;20078;-86
2022/11/02 02:42:04;;;;;;;4.93;2.35;;;11.40;99.90;;;;;;5096436;28;20066;-82
2022/11/02 02:44:31;;;;;;;8.57;2.13;;;11.50;99.90;;;;;;5121447;28;20182;-85
2022/11/02 02:47:03;;;;;;;12.00;2.60;;;11.50;99.90;;;;;;5099785;28;20043;-85
2022/11/02 02:49:33;;;;;;;5.75;2.33;;;11.60;99.90;;;;;;5088281;28;20051;-86
2022/11/02 02:51:59;;;;;;;6.82;2.42;;;11.50;99.90;;;;;;5080086;28;20126;-85
2022/11/02 02:54:28;;;;;;;9.60;2.72;;;11.50;99.90;;;;;;5082102;28;20466;-87
2022/11/02 02:56:56;;;;;;;9.90;2.20;;;11.40;99.90;;;;;;5070266;28;20051;-87
2022/11/02 02:59:29;;;;;;;7.93;2.92;;;11.50;99.90;;;;;;5061488;28;20417;-86
2022/11/02 03:01:55;;;;;;;6.63;1.40;;;11.40;99.90;;;;;;5079356;28;20046;-86
2022/11/02 03:04:20;;;;;;;5.53;1.30;;;11.50;99.90;;;;;;5078547;28;20376;-86
2022/11/02 03:06:48;;;;;;;2.22;1.20;;;11.50;99.90;;;;;;5083724;28;20032;-86
2022/11/02 03:09:23;;;;;;;4.15;1.38;;;11.40;99.90;;;;;;5096383;28;20055;-86
2022/11/02 03:12:16;;;;;;;5.25;1.50;;;11.40;99.90;;;;;;5117237;28;20107;-85
2022/11/02 03:14:59;;;;;;;1.92;1.20;;;11.30;99.90;;;;;;5097597;28;20054;-84
2022/11/02 03:17:54;;;;;;;8.77;1.67;;;11.30;99.90;;;;;;5079434;28;20048;-85
2022/11/02 03:20:33;;;;;;;4.68;1.90;;;11.30;99.90;;;;;;5094242;28;20487;-85
2022/11/02 03:23:18;;;;;;;5.88;1.60;;;11.20;99.90;;;;;;5095613;28;20044;-85
2022/11/02 03:26:03;;;;;;;;;;;11.20;99.90;;;;;;5080040;28;20051;-84
2022/11/02 03:28:54;;;;;;;5.78;1.63;;;11.20;99.90;;;;;;5110882;28;19971;-85
2022/11/02 03:31:35;;;;;;;6.78;2.15;;;11.10;99.90;;;;;;5111108;28;20079;-85
2022/11/02 03:34:18;;;;;;;7.47;1.70;;;11.10;99.90;;;;;;5094943;28;20040;-86
2022/11/02 03:36:48;;;;;;;5.45;1.55;;;11.10;99.90;;;;;;5112185;28;20043;-85
2022/11/02 03:39:15;;;;;;;4.57;1.33;;;11.10;99.90;;;;;;5094504;28;20112;-85
2022/11/02 03:41:42;;;;;;;3.97;1.30;;;11.10;99.90;;;;;;5077937;28;20479;-85
2022/11/02 03:44:16;;;;;;;5.75;1.20;;;11.00;99.90;;;;;;5061338;28;20047;-85
2022/11/02 03:46:45;;;;;;;4.70;1.35;;;11.00;99.90;;;;;;5078876;28;20055;-84
2022/11/02 03:49:12;;;;;;;5.53;1.30;;;11.00;99.90;;;;;;5095167;28;20425;-85
2022/11/02 03:51:39;;;;;;;7.10;1.30;;;11.00;99.90;;;;;;5094682;28;20104;-85
2022/11/02 03:54:06;;;;;;;8.73;1.27;;;11.00;99.90;;;;;;5076992;28;20052;-86
2022/11/02 03:56:37;;;;;;;4.90;1.40;;;10.90;99.90;;;;;;5093613;28;20104;-85
2022/11/02 03:59:03;;;;;;;6.05;1.63;;;10.90;99.90;;;;;;5061348;28;20087;-85
2022/11/02 04:01:28;;;;;;;6.10;1.30;;;10.90;99.90;;;;;;5094314;28;20086;-84
2022/11/02 04:03:54;;;;;;;7.28;1.20;;;10.90;99.90;;;;;;5077853;28;20139;-86
2022/11/02 04:06:19;;;;;;;3.95;1.17;;;10.90;99.90;;;;;;5111178;28;20467;-85
2022/11/02 04:08:46;;;;;;;5.53;0.95;;;10.90;99.90;;;;;;5093528;28;20116;-85
2022/11/02 04:16:41;;;;;;;4.65;1.30;;;11.00;99.90;;;;;;5115246;28;20052;-85
2022/11/02 04:19:26;;;;;;;9.25;1.42;;;11.00;99.90;;;;;;5062420;28;20055;-84
2022/11/02 04:27:21;;;;;;;;;;;11.00;99.90;;;;;;5087116;28;20040;-84
2022/11/02 04:29:47;;;;;;;7.20;1.13;;;10.80;99.90;;;;;;5111578;28;20383;-85
2022/11/02 04:32:13;;;;;;;7.28;1.83;;;10.80;99.90;;;;;;5061714;28;20073;-86
2022/11/02 04:34:38;;;;;;;6.28;1.55;;;10.70;99.90;;;;;;5077031;28;20051;-85
2022/11/02 04:38:39;;;;;;;8.05;1.60;;;10.80;99.90;;;;;;5077902;28;20055;-86
2022/11/02 04:39:51;;;;;;;5.43;1.45;;;10.80;99.90;;;;;;5080469;28;20060;-84
2022/11/02 04:42:16;;;;;;;4.40;1.35;;;10.90;99.90;;;;;;5076973;28;20503;-86
2022/11/02 04:44:42;;;;;;;5.70;1.20;;;11.00;99.90;;;;;;5094177;28;20079;-85
2022/11/02 04:47:08;;;;;;;9.45;1.58;;;11.00;99.90;;;;;;5081611;28;20031;-85
2022/11/02 04:49:34;;;;;;;6.88;1.58;;;11.00;99.90;;;;;;5097529;28;20047;-85
2022/11/02 04:51:59;;;;;;;7.57;2.05;;;11.00;99.90;;;;;;5080316;28;20047;-84
2022/11/02 04:54:25;;;;;;;5.43;1.60;;;11.10;99.90;;;;;;5064175;28;20047;-84
2022/11/02 04:56:51;;;;;;;7.82;1.50;;;11.00;99.90;;;;;;5080804;28;20143;-85
2022/11/02 04:59:16;;;;;;;8.80;1.50;;;11.00;99.90;;;;;;5098434;28;20075;-85
2022/11/02 05:01:42;;;;;;;6.75;1.85;;;11.10;99.90;;;;;;5104045;28;20047;-84
2022/11/02 05:04:08;;;;;;;6.72;1.88;;;11.10;99.90;;;;;;5105489;28;20043;-84
2022/11/02 05:06:35;;;;;;;7.82;2.50;;;11.00;99.90;;;;;;5081124;28;20464;-86
2022/11/02 05:09:01;;;;;;;10.05;1.73;;;11.10;99.90;;;;;;5115012;28;20060;-85
2022/11/02 05:11:26;;;;;;;7.95;2.22;;;11.10;99.90;;;;;;5080458;28;20135;-84
2022/11/02 05:13:52;;;;;;;5.60;1.70;;;11.10;99.90;;;;;;5113641;28;20088;-85
2022/11/02 05:16:19;;;;;;;6.10;1.70;;;11.00;99.90;;;;;;5100689;28;20048;-84
2022/11/02 05:18:45;;;;;;;6.80;2.10;;;11.00;99.90;;;;;;5067479;28;20381;-84
2022/11/02 05:21:10;;;;;;;5.50;1.60;;;10.90;99.90;;;;;;5097852;28;20069;-84
2022/11/02 05:23:37;;;;;;;9.15;2.17;;;11.00;99.90;;;;;;5114200;28;20047;-85
2022/11/02 05:26:12;;;;;;;9.88;2.20;;;11.00;99.90;;;;;;5096176;28;20079;-85
2022/11/02 05:28:37;;;;;;;4.70;1.77;;;10.90;99.90;;;;;;5096965;28;20039;-85
2022/11/02 05:31:03;;;;;;;9.65;2.55;;;10.80;99.90;;;;;;5097540;28;20495;-86
2022/11/02 05:33:29;;;;;;;8.73;2.35;;;10.80;99.90;;;;;;5096411;28;20040;-85
2022/11/02 05:35:56;;;;;;;9.75;2.13;;;10.80;99.90;;;;;;5079813;28;20044;-85
2022/11/02 05:38:25;;;;;;;9.82;2.10;;;10.90;99.90;;;;;;5081001;28;20055;-84
2022/11/02 05:40:52;;;;;;;9.52;2.30;;;10.90;99.90;;;;;;5087728;28;20043;-84
2022/11/02 05:43:18;;;;;;;6.53;2.25;;;11.00;99.90;;;;;;5117006;28;20048;-84
2022/11/02 05:45:43;;;;;;;8.18;2.00;;;11.00;99.90;;;;;;5076201;28;20051;-85
2022/11/02 05:48:09;;;;;;;11.23;3.20;;;11.00;99.90;;;;;;5104613;28;20086;-86
2022/11/02 05:50:35;;;;;;;9.70;2.40;;;11.00;99.90;;;;;;5074589;28;20043;-84
2022/11/02 05:53:00;;;;;;;7.47;1.90;;;11.00;99.90;;;;;;5101191;28;20043;-86
2022/11/02 05:55:26;;;;;;;6.30;1.80;;;10.90;99.90;;;;;;5098632;28;20043;-85
2022/11/02 05:57:54;;;;;;;11.02;2.47;;;10.90;99.90;;;;;;5104611;28;20044;-84
2022/11/02 06:00:20;;;;;;;9.40;2.15;;;11.00;99.90;;;;;;5082882;28;20063;-85
2022/11/02 06:02:46;;;;;;;7.70;1.40;;;11.00;99.90;;;;;;5079760;28;20070;-85
2022/11/02 06:05:12;;;;;;;9.40;2.30;;;11.00;99.90;;;;;;5079966;28;20574;-85
2022/11/02 06:07:38;;;;;;;4.90;1.50;;;10.90;99.90;;;;;;5062304;28;20381;-85
2022/11/02 06:10:04;;;;;;;11.20;2.20;;;10.90;99.90;;;;;;5079565;28;20040;-85
2022/11/02 06:12:30;;;;;;;7.68;2.40;;;11.00;99.90;;;;;;5079323;28;20051;-86
2022/11/02 06:14:55;;;;;;;7.72;2.08;;;10.90;99.90;;;;;;5095911;28;20048;-85
2022/11/02 06:17:21;;;;;;;9.27;2.10;;;10.90;99.90;;;;;;5096344;28;20507;-85
2022/11/02 06:19:47;;;;;;;7.28;2.15;;;10.80;99.90;;;;;;5061787;28;20051;-85
2022/11/02 06:22:12;;;;;;;10.18;3.00;;;10.80;99.90;;;;;;5095803;28;20540;-86
2022/11/02 06:24:38;;;;;;;11.65;2.63;;;10.80;99.90;;;;;;5095519;28;20074;-85
2022/11/02 06:27:04;;;;;;;12.50;2.33;;;10.90;99.90;;;;;;5062284;28;20518;-86
2022/11/02 06:29:30;;;;;;;6.65;2.03;;;10.80;99.90;;;;;;5079285;28;20537;-86
2022/11/02 06:31:55;;;;;;;11.50;2.53;;;10.90;99.90;;;;;;5094361;28;20493;-85
2022/11/02 06:34:21;;;;;;;11.95;3.15;;;10.90;99.90;;;;;;5077412;28;20062;-84
2022/11/02 06:36:47;;;;;;;14.13;2.42;;;10.80;99.90;;;;;;5074918;28;20130;-86
2022/11/02 06:39:12;;;;;;;11.30;2.78;;;10.80;99.90;;;;;;5085470;28;20426;-85
2022/11/02 06:41:38;;;;;;;9.07;2.72;;;10.90;99.90;;;;;;5049585;28;20483;-85
2022/11/02 06:44:04;;;;;;;14.05;2.60;;;10.90;99.90;;;;;;5083383;28;20068;-85
2022/11/02 06:46:29;;;;;;;8.18;2.20;;;10.90;99.90;;;;;;5083296;28;20048;-83
2022/11/02 06:48:55;;;;;;;10.43;2.80;;;11.00;99.90;;;;;;5083342;28;20040;-86
2022/11/02 06:51:21;;;;;;;10.88;2.35;;;11.00;99.90;;;;;;5084782;28;20127;-84
2022/11/02 06:53:46;;;;;;;11.63;2.40;;;11.00;99.90;;;;;;5065118;28;20072;-84
2022/11/02 06:56:12;;;;;;;7.40;2.08;;;10.90;99.90;;;;;;5073606;28;20096;-86
2022/11/02 06:58:38;;;;;;;10.20;2.50;;;10.90;99.90;;;;;;5078440;28;20040;-85
2022/11/02 07:01:06;;;;;;;9.38;2.30;;;10.90;99.90;;;;;;5085403;28;20054;-85
2022/11/02 07:03:35;;;;;;;12.35;2.35;;;11.00;99.90;;;;;;5133874;28;20042;-85
2022/11/02 07:06:01;;;;;;;10.85;2.03;;;11.10;99.90;;;;;;5080397;28;20479;-84
2022/11/02 07:08:27;;;;;;;11.35;2.50;;;11.00;99.90;;;;;;5095396;28;20372;-85
2022/11/02 07:10:54;;;;;;;13.15;2.20;;;11.00;99.90;;;;;;5077738;28;20047;-83
2022/11/02 07:13:20;;;;;;;12.65;2.28;;;11.00;99.90;;;;;;5061409;28;20423;-84
2022/11/02 07:15:45;;;;;;;12.40;2.50;;;11.00;99.90;;;;;;5077261;28;20046;-84
2022/11/02 07:18:11;;;;;;;8.98;2.00;;;11.10;99.90;;;;;;5060857;28;20392;-83
2022/11/02 07:20:37;;;;;;;8.73;2.05;;;11.10;99.90;;;;;;5083558;28;20102;-84
2022/11/02 07:23:03;;;;;;;9.98;2.28;;;11.10;99.90;;;;;;5107193;28;20373;-84
2022/11/02 07:25:32;;;;;;;11.13;2.20;;;11.30;99.90;;;;;;5087203;28;20079;-83
2022/11/02 07:27:58;;;;;;;8.77;2.03;;;11.20;99.90;;;;;;5063247;28;20047;-83
2022/11/02 07:30:25;;;;;;;11.05;2.33;;;11.30;99.90;;;;;;5079593;28;20047;-84
2022/11/02 07:32:51;;;;;;;9.82;2.08;;;11.30;99.90;;;;;;5062012;28;20051;-84
2022/11/02 07:35:17;;;;;;;13.18;2.65;;;11.40;99.90;;;;;;5061363;28;20074;-84
2022/11/02 07:37:42;;;;;;;12.60;2.22;;;11.30;99.90;;;;;;5052620;28;20491;-85
2022/11/02 07:40:09;;;;;;;11.85;2.17;;;11.30;99.90;;;;;;5061031;28;20081;-83
2022/11/02 07:42:35;;;;;;;7.78;2.30;;;11.30;99.90;;;;;;5056769;28;20060;-83
2022/11/02 07:45:01;;;;;;;9.38;1.77;;;11.20;99.90;;;;;;5111416;28;20078;-84
2022/11/02 07:47:26;;;;;;;13.50;1.75;;;11.20;99.90;;;;;;5094822;28;20411;-84
2022/11/02 07:49:52;;;;;;;9.68;2.03;;;11.20;99.90;;;;;;5093851;28;20491;-82
2022/11/02 07:52:17;;;;;;;13.02;2.97;;;11.20;99.90;;;;;;5110344;28;20048;-84
2022/11/02 07:54:43;;;;;;;7.97;1.90;;;11.10;99.90;;;;;;5095460;28;20047;-84
2022/11/02 07:57:09;;;;;;;8.82;1.80;;;11.10;99.90;;;;;;5077734;28;20058;-84
2022/11/02 07:59:35;;;;;;;10.93;1.77;;;11.20;99.90;;;;;;5111277;28;20048;-83
2022/11/02 08:02:01;;;;;;;8.40;1.60;;;11.20;99.90;;;;;;5111483;28;20062;-84
2022/11/02 08:04:27;;;;;;;13.82;4.03;;;11.30;99.90;;;;;;5094764;28;20108;-85
2022/11/02 08:06:56;;;;;;;8.75;1.95;;;11.30;99.90;;;;;;5111545;28;20422;-85
2022/11/02 08:09:22;;;;;;;6.00;1.95;;;11.20;99.90;;;;;;5078017;28;20099;-84
2022/11/02 08:11:47;;;;;;;9.65;1.75;;;11.30;99.90;;;;;;5094665;28;20079;-84
2022/11/02 08:14:13;;;;;;;6.40;1.35;;;11.40;99.90;;;;;;5110956;28;20040;-84
2022/11/02 08:16:39;;;;;;;9.77;2.00;;;11.50;99.90;;;;;;5114756;28;20044;-79
2022/11/02 08:19:04;;;;;;;5.72;1.65;;;11.50;99.90;;;;;;5098192;28;20044;-79
2022/11/02 08:21:30;;;;;;;7.38;1.73;;;11.50;99.90;;;;;;5088344;28;20055;-84
2022/11/02 08:23:56;;;;;;;7.75;1.35;;;11.50;99.90;;;;;;5094586;28;20043;-83
2022/11/02 08:26:21;;;;;;;6.95;1.50;;;11.60;99.90;;;;;;5111496;28;20090;-83
2022/11/02 08:28:47;;;;;;;4.07;1.33;;;11.80;99.90;;;;;;5104737;28;20069;-85
2022/11/02 08:31:14;;;;;;;6.78;1.60;;;12.10;99.90;;;;;;5094578;28;20054;-84
2022/11/02 08:33:41;;;;;;;8.13;1.40;;;12.30;99.90;;;;;;5115498;28;20047;-84
2022/11/02 08:36:07;;;;;;;6.50;1.50;;;12.40;99.90;;;;;;5112049;28;20054;-83
2022/11/02 08:38:33;;;;;;;5.28;1.35;;;12.40;99.90;;;;;;5094161;28;20487;-83
2022/11/02 08:40:58;;;;;;;6.05;1.67;;;12.40;99.90;;;;;;5062674;28;20055;-82
2022/11/02 08:43:24;;;;;;;7.75;2.00;;;12.20;99.90;;;;;;5114430;28;20478;-85
2022/11/02 08:45:50;;;;;;;6.78;1.67;;;12.40;99.90;;;;;;5097664;28;20078;-85
2022/11/02 08:48:15;;;;;;;5.18;1.30;;;12.40;99.90;;;;;;5097336;28;20470;-85
2022/11/02 08:50:41;;;;;;;8.65;1.58;;;12.40;99.90;;;;;;5082964;28;20176;-85
2022/11/02 08:53:07;;;;;;;6.32;1.58;;;12.70;99.90;;;;;;5102876;28;20081;-85
2022/11/02 08:55:33;;;;;;;3.38;0.93;;;13.30;99.90;;;;;;5098002;28;20563;-86
2022/11/02 08:57:59;;;;;;;7.75;1.33;;;13.50;99.90;;;;;;5082974;28;20047;-84
2022/11/02 09:00:29;;;;;;;6.13;1.50;;;13.20;99.90;;;;;;5084670;28;20104;-85
2022/11/02 09:03:06;;;;;;;8.55;1.50;;;13.10;99.90;;;;;;5101212;27;20046;-83
2022/11/02 09:05:33;;;;;;;3.45;1.27;;;13.00;99.90;;;;;;5084691;27;20050;-84
2022/11/02 09:08:00;;;;;;;6.30;2.28;;;13.00;99.90;;;;;;5084135;27;20065;-84
2022/11/02 09:10:27;;;;;;;7.75;1.35;;;13.00;99.90;;;;;;5084075;27;20050;-85
2022/11/02 09:12:57;;;;;;;3.83;1.40;;;13.10;99.90;;;;;;5102006;27;20046;-84
2022/11/02 09:15:22;;;;;;;5.38;1.73;;;13.10;99.90;;;;;;5107925;27;20051;-84
2022/11/02 09:17:49;;;;;;;5.20;1.23;;;13.20;99.90;;;;;;5094120;27;20145;-84
2022/11/02 09:20:15;;;;;;;4.43;1.25;;;13.20;99.90;;;;;;5056981;27;20047;-84
2022/11/02 09:22:41;;;;;;;4.88;1.17;;;13.10;99.90;;;;;;5092905;27;20043;-83
2022/11/02 09:25:07;;;;;;;5.90;1.38;;;13.00;99.90;;;;;;5090790;27;20058;-83
2022/11/02 09:27:33;;;;;;;8.77;1.38;;;13.20;99.90;;;;;;5093802;27;20049;-85
2022/11/02 09:29:58;;;;;;;4.18;1.20;;;13.50;99.90;;;;;;5088583;27;20043;-84
2022/11/02 09:32:24;;;;;;;6.30;1.20;;;13.70;99.90;;;;;;5087654;27;20488;-84
2022/11/02 09:34:51;;;;;;;5.03;1.45;;;13.40;99.90;;;;;;5098686;27;20062;-80
2022/11/02 09:37:16;;;;;;;4.53;1.30;;;13.50;99.90;;;;;;5095625;27;20043;-82
2022/11/02 09:39:42;;;;;;;3.90;1.30;;;13.50;99.90;;;;;;5090578;27;20046;-81
2022/11/02 09:42:17;;;;;;;8.40;2.30;;;13.50;99.90;;;;;;5106911;27;20055;-83
2022/11/02 09:45:03;;;;;;;5.63;1.30;;;13.30;99.90;;;;;;5117795;27;20108;-83
2022/11/02 09:47:29;;;;;;;5.32;1.20;;;13.20;99.90;;;;;;5101454;27;20100;-84
2022/11/02 09:49:55;;;;;;;6.85;1.70;;;13.30;99.90;;;;;;5067204;27;20058;-84
2022/11/02 09:52:25;;;;;;;7.50;1.48;;;13.10;99.90;;;;;;5082696;27;20745;-84
2022/11/02 09:54:51;;;;;;;5.25;1.38;;;13.10;99.90;;;;;;5066340;27;20474;-84
2022/11/02 09:57:27;;;;;;;8.10;2.00;;;13.20;99.90;;;;;;5083082;27;20047;-83
2022/11/02 10:00:02;;;;;;;4.68;1.33;;;13.20;99.90;;;;;;5100595;27;20043;-81
2022/11/02 10:03:02;;;;;;;5.32;1.45;;;13.20;99.90;;;;;;5116278;27;20158;-81
2022/11/02 10:05:47;;;;;;;7.15;1.30;;;13.30;99.90;;;;;;5116336;27;20050;-82
2022/11/02 10:08:15;;;;;;;5.78;1.40;;;13.20;99.90;;;;;;5099321;27;20043;-83
2022/11/02 10:11:04;;;;;;;5.95;1.42;;;13.00;99.90;;;;;;5116516;27;20518;-83
2022/11/02 10:13:59;;;;;;;8.10;1.30;;;13.10;99.90;;;;;;5081821;27;20093;-81
2022/11/02 10:16:34;;;;;;;4.50;1.00;;;13.10;99.90;;;;;;5082176;27;20221;-83
2022/11/02 10:19:00;;;;;;;4.25;1.20;;;13.10;99.90;;;;;;5083860;27;20495;-83
2022/11/02 10:21:33;;;;;;;8.93;1.50;;;13.10;99.90;;;;;;5098843;27;20412;-83
2022/11/02 10:24:23;;;;;;;5.50;1.30;;;13.30;99.90;;;;;;5099630;27;20402;-82
2022/11/02 10:26:49;;;;;;;5.85;1.00;;;13.50;99.90;;;;;;5101851;27;20055;-83
2022/11/02 10:29:20;;;;;;;6.40;1.63;;;13.70;99.90;;;;;;5081358;27;20035;-84
2022/11/02 10:31:47;;;;;;;7.63;2.15;;;13.80;99.90;;;;;;5083625;27;20055;-82
2022/11/02 10:34:21;;;;;;;9.15;2.05;;;13.90;99.90;;;;;;5096688;27;20040;-82
2022/11/02 10:37:12;;;;;;;9.27;1.45;;;13.80;99.90;;;;;;5074063;27;20166;-83
2022/11/02 10:40:04;;;;;;;7.60;1.95;;;13.80;99.90;;;;;;5118536;27;20055;-81
2022/11/02 10:42:51;;;;;;;9.60;1.95;;;13.80;99.90;;;;;;5080221;27;20051;-81
2022/11/02 10:45:32;;;;;;;7.55;1.38;;;13.80;99.90;;;;;;5098672;27;20058;-82
2022/11/02 10:48:11;;;;;;;5.18;1.65;;;14.00;99.90;;;;;;5115871;27;20051;-82
2022/11/02 10:50:39;;;;;;;6.25;1.45;;;13.90;99.90;;;;;;5105354;27;20050;-77
2022/11/02 10:53:10;;;;;;;5.30;1.40;;;13.70;99.90;;;;;;5121362;27;20050;-82
2022/11/02 10:55:48;;;;;;;7.10;1.60;;;13.60;99.90;;;;;;5099944;27;20074;-81
2022/11/02 10:58:17;;;;;;;9.38;1.33;;;13.70;99.90;;;;;;5083309;27;20043;-82
2022/11/02 11:00:43;;;;;;;5.20;1.38;;;13.80;99.90;;;;;;5052698;27;20059;-83
2022/11/02 11:03:16;;;;;;;8.45;1.52;;;13.90;99.90;;;;;;5081952;28;20526;-81
2022/11/02 11:05:41;;;;;;;8.80;1.98;;;14.00;99.90;;;;;;5099449;27;20054;-82
2022/11/02 11:08:36;;;;;;;6.68;1.40;;;14.30;99.90;;;;;;5115985;27;20047;-83
2022/11/02 11:11:12;;;;;;;7.32;1.40;;;14.10;99.90;;;;;;5066873;27;20483;-82
2022/11/02 11:13:38;;;;;;;4.25;1.23;;;14.20;99.90;;;;;;5097923;27;20511;-82
2022/11/02 11:16:05;;;;;;;5.80;1.58;;;14.20;99.90;;;;;;5065061;27;20072;-83
2022/11/02 11:18:30;;;;;;;5.32;1.10;;;14.20;99.90;;;;;;5114784;27;20057;-82
2022/11/02 11:20:57;;;;;;;7.95;1.10;;;14.10;99.90;;;;;;5081764;27;20137;-82
2022/11/02 11:23:24;;;;;;;8.57;1.27;;;14.10;99.90;;;;;;5096961;28;20398;-82
2022/11/02 11:26:04;;;;;;;8.25;1.42;;;14.20;99.90;;;;;;5097970;27;20086;-83
2022/11/02 11:28:36;;;;;;;6.60;1.58;;;14.00;99.90;;;;;;5097966;27;20073;-85
2022/11/02 11:31:03;;;;;;;8.80;1.58;;;14.00;99.90;;;;;;5089765;28;20103;-85
2022/11/02 11:33:28;;;;;;;3.88;1.20;;;14.10;99.90;;;;;;5088851;27;20042;-84
2022/11/02 11:35:54;;;;;;;6.95;1.52;;;14.10;99.90;;;;;;5081167;28;20062;-85
2022/11/02 11:38:21;;;;;;;4.63;1.15;;;13.80;99.90;;;;;;5097726;28;20070;-85
2022/11/02 11:40:52;;;;;;;5.75;1.27;;;13.70;99.90;;;;;;5065417;27;20062;-85
2022/11/02 11:43:18;;;;;;;3.67;1.00;;;13.60;99.90;;;;;;5095789;28;20077;-85
2022/11/02 11:46:13;;;;;;;7.38;1.58;;;13.60;99.90;;;;;;5058277;28;20499;-86
2022/11/02 11:48:46;;;;;;;3.28;0.85;;;13.50;99.90;;;;;;5065620;28;20044;-85
2022/11/02 11:51:25;;;;;;;4.43;0.98;;;13.60;99.90;;;;;;5073164;28;20483;-86
2022/11/02 11:54:17;;;;;;;7.40;1.48;;;13.30;99.90;;;;;;5094287;28;20043;-86
2022/11/02 11:56:42;;;;;;;4.22;1.10;;;13.20;99.90;;;;;;5073702;28;20502;-86
2022/11/02 11:59:20;;;;;;;5.03;1.17;;;13.20;99.90;;;;;;5093693;28;20092;-85
2022/11/02 12:01:46;;;;;;;6.13;1.60;;;13.20;99.90;;;;;;5103523;28;20071;-84
2022/11/02 12:04:12;;;;;;;3.88;1.10;;;13.10;99.90;;;;;;5089811;28;20054;-79
2022/11/02 12:06:51;;;;;;;4.05;1.20;;;13.10;99.90;;;;;;5094607;28;20778;-85
2022/11/02 12:09:29;;;;;;;7.53;1.10;;;13.10;99.90;;;;;;5095069;28;20047;-84
2022/11/02 12:12:06;;;;;;;2.78;1.10;;;12.90;99.90;;;;;;5107715;28;20552;-86
2022/11/02 12:14:54;;;;;;;6.65;1.30;;;13.00;99.90;;;;;;5085434;28;20055;-86
2022/11/02 12:17:41;;;;;;;6.65;1.45;;;13.10;99.90;;;;;;5090503;28;20518;-86
2022/11/02 12:20:34;;;;;;;8.07;1.27;;;13.10;99.90;;;;;;5076667;28;20043;-83
2022/11/02 12:23:06;;;;;;;6.00;1.35;;;13.20;99.90;;;;;;5092396;28;20047;-86
2022/11/02 12:26:03;;;;;;;4.22;1.30;;;13.30;99.90;;;;;;5089838;28;20046;-84
2022/11/02 12:28:58;;;;;;;5.15;1.20;;;13.40;99.90;;;;;;5088661;28;20039;-86
2022/11/02 12:31:32;;;;;;;;;;;13.60;99.90;;;;;;5087931;28;20084;-87
2022/11/02 12:34:13;;;;;;;5.80;1.08;;;13.80;99.90;;;;;;5091264;28;20363;-85
2022/11/02 12:37:07;;;;;;;3.88;0.90;;;14.00;99.90;;;;;;5088247;27;20132;-85
2022/11/02 12:39:52;;;;;;;4.55;1.20;;;14.20;99.90;;;;;;5092005;27;20487;-85
2022/11/02 12:42:39;;;;;;;6.07;1.48;;;14.40;99.90;;;;;;5107798;27;20419;-84
2022/11/02 12:45:24;;;;;;;7.65;1.05;;;14.50;99.90;;;;;;5087279;28;20377;-86
2022/11/02 12:47:55;;;;;;;8.07;1.77;;;14.50;99.90;;;;;;5088522;28;20479;-84
2022/11/02 12:50:26;;;;;;;6.50;1.15;;;14.50;99.90;;;;;;5059332;28;20087;-86
2022/11/02 12:53:14;;;;;;;8.35;1.77;;;14.50;99.90;;;;;;5080742;28;20557;-84
2022/11/02 12:55:43;;;;;;;6.85;1.27;;;14.50;99.90;;;;;;5096959;28;20493;-83
2022/11/02 12:58:24;;;;;;;4.43;1.27;;;14.60;99.90;;;;;;5064404;28;20051;-83
2022/11/02 13:00:54;;;;;;;4.25;1.48;;;14.70;99.90;;;;;;5063857;28;20055;-83
2022/11/02 13:03:19;;;;;;;7.10;1.50;;;14.70;99.90;;;;;;5063960;28;20059;-83
2022/11/02 13:05:49;;;;;;;5.15;1.48;;;14.80;99.90;;;;;;5097054;28;20438;-83
2022/11/02 13:08:20;;;;;;;4.82;1.20;;;14.80;99.90;;;;;;5064417;28;20441;-88
2022/11/02 13:10:54;;;;;;;4.43;0.93;;;14.80;99.90;;;;;;5057410;28;20122;-83